Time;durP1;ratioP1;P1;durP2;ratioP2;P2;SDS_P1;SDS_P2;PMS_P1;PMS_P2;Temp;Humidity;BMP_temperature;BMP_pressure;BME280_temperature;BME280_humidity;BME280_pressure;Samples;Min_cycle;Max_cycle;Signal;HPM_P1;HPM_P2
2023/01/24 00:01:25;;;;;;;39.50;30.95;;;2.20;98.90;;;1.14;90.50;103310.47;5009860;28;20778;-70
2023/01/24 00:03:54;;;;;;;38.70;30.48;;;2.20;99.00;;;1.11;89.94;103305.25;5008812;28;20404;-69
2023/01/24 00:06:22;;;;;;;37.58;30.52;;;2.20;98.80;;;1.13;90.22;103304.31;5009440;28;20409;-70
2023/01/24 00:08:51;;;;;;;39.37;30.47;;;2.20;99.00;;;1.13;90.63;103306.94;5008924;28;20441;-69
2023/01/24 00:11:19;;;;;;;39.58;31.15;;;2.20;98.90;;;1.16;90.49;103299.00;5009913;28;20408;-70
2023/01/24 00:13:48;;;;;;;38.00;30.35;;;2.20;98.90;;;1.15;90.28;103297.25;5009178;28;20420;-70
2023/01/24 00:16:18;;;;;;;40.53;30.70;;;2.20;98.80;;;1.14;89.75;103292.88;5009010;28;20425;-70
2023/01/24 00:18:49;;;;;;;40.10;31.60;;;2.20;98.80;;;1.14;90.33;103300.78;5014927;28;20494;-69
2023/01/24 00:21:20;;;;;;;40.05;31.55;;;2.20;98.80;;;1.10;90.36;103299.13;5028860;28;20906;-70
2023/01/24 00:23:51;;;;;;;38.20;31.37;;;2.10;98.80;;;1.12;89.95;103301.72;5028820;28;20436;-70
2023/01/24 00:26:22;;;;;;;39.58;30.70;;;2.20;98.80;;;1.11;89.88;103300.84;5028752;28;20751;-70
2023/01/24 00:28:51;;;;;;;38.58;30.20;;;2.20;98.80;;;1.12;90.16;103310.50;5028536;28;20410;-69
2023/01/24 00:31:20;;;;;;;37.23;30.00;;;2.20;98.70;;;1.10;89.86;103304.38;5028769;28;20407;-69
2023/01/24 00:33:50;;;;;;;36.47;28.77;;;2.20;98.60;;;1.09;89.63;103302.69;5028983;28;20458;-69
2023/01/24 00:36:18;;;;;;;35.13;28.48;;;2.20;98.70;;;1.10;90.39;103291.19;5028576;28;20426;-71
2023/01/24 00:38:46;;;;;;;35.58;27.98;;;2.10;98.70;;;1.11;89.90;103289.44;5028608;28;21082;-69
2023/01/24 00:41:15;;;;;;;35.42;28.52;;;2.10;98.60;;;1.11;89.74;103286.78;5028789;28;20569;-71
2023/01/24 00:43:43;;;;;;;36.67;29.77;;;2.10;98.60;;;1.09;89.99;103284.22;5028301;28;20711;-70
2023/01/24 00:46:11;;;;;;;34.47;27.73;;;2.10;98.60;;;1.11;89.79;103294.72;5022099;28;20403;-70
2023/01/24 00:48:39;;;;;;;34.67;28.05;;;2.20;98.80;;;1.11;89.44;103287.66;5028683;28;20402;-70
2023/01/24 00:51:09;;;;;;;34.08;27.90;;;2.20;98.60;;;1.10;90.02;103282.44;5028687;28;20414;-71
2023/01/24 00:53:38;;;;;;;33.80;27.98;;;2.10;98.50;;;1.10;90.24;103280.66;5028930;28;20410;-70
2023/01/24 00:56:08;;;;;;;33.65;27.23;;;2.20;98.70;;;1.10;89.73;103287.72;5028782;28;20450;-70
2023/01/24 00:58:36;;;;;;;30.33;26.33;;;2.10;98.60;;;1.09;89.57;103292.13;5028809;28;20407;-70
2023/01/24 01:01:05;;;;;;;32.67;27.45;;;2.20;98.50;;;1.09;89.94;103297.41;5028307;28;20910;-71
2023/01/24 01:03:33;;;;;;;31.55;26.50;;;2.10;98.50;;;1.12;89.95;103285.91;5028491;28;20792;-70
2023/01/24 01:06:05;;;;;;;29.45;24.92;;;2.20;98.50;;;1.12;88.96;103291.19;5028342;28;20398;-70
2023/01/24 01:08:35;;;;;;;30.70;25.30;;;2.20;98.30;;;1.11;89.23;103295.59;5027817;28;20418;-70
2023/01/24 01:11:04;;;;;;;29.20;25.05;;;2.20;98.30;;;1.11;89.82;103300.84;5028015;28;20418;-71
2023/01/24 01:13:32;;;;;;;30.02;24.70;;;2.20;98.40;;;1.10;88.93;103293.84;5028015;28;20509;-71
2023/01/24 01:16:06;;;;;;;29.02;24.73;;;2.20;98.30;;;1.10;88.92;103299.13;5028042;28;20510;-71
2023/01/24 01:18:36;;;;;;;28.95;24.27;;;2.20;98.30;;;1.12;88.92;103299.09;5028416;28;20438;-71
2023/01/24 01:21:06;;;;;;;28.40;24.52;;;2.10;98.30;;;1.11;88.69;103295.59;5027951;28;20399;-70
2023/01/24 01:23:37;;;;;;;27.23;23.73;;;2.20;98.20;;;1.13;89.70;103299.03;5027907;28;20411;-70
2023/01/24 01:26:09;;;;;;;26.90;23.52;;;2.20;98.30;;;1.11;88.89;103298.22;5027393;28;20403;-70
2023/01/24 01:28:37;;;;;;;25.85;22.98;;;2.20;98.20;;;1.13;89.34;103293.75;5027604;28;20887;-70
2023/01/24 01:31:06;;;;;;;25.92;22.35;;;2.20;98.60;;;1.09;88.75;103300.03;5027981;28;20446;-71
2023/01/24 01:33:34;;;;;;;27.05;22.50;;;2.20;98.00;;;1.07;88.37;103293.91;5027867;28;20502;-71
2023/01/24 01:36:02;;;;;;;25.47;22.67;;;2.10;97.90;;;1.09;89.04;103292.13;5027627;28;20485;-70
2023/01/24 01:38:32;;;;;;;26.52;23.08;;;2.10;98.10;;;1.12;89.01;103307.00;5028125;28;20407;-71
2023/01/24 01:41:02;;;;;;;24.42;21.52;;;2.20;98.50;;;1.09;88.10;103299.16;5028067;28;20398;-71
2023/01/24 01:43:31;;;;;;;25.98;22.80;;;2.10;97.90;;;1.08;88.60;103297.44;5027721;28;20413;-70
2023/01/24 01:46:15;;;;;;;26.83;21.87;;;2.10;97.80;;;1.07;88.92;103298.31;5026803;28;20819;-70
2023/01/24 01:48:50;;;;;;;25.87;22.70;;;2.10;97.90;;;1.08;88.48;103300.94;5027834;28;20410;-70
2023/01/24 01:51:23;;;;;;;24.88;22.17;;;2.20;97.90;;;1.09;88.67;103296.53;5028092;28;20399;-70
2023/01/24 01:53:57;;;;;;;25.65;22.17;;;2.20;97.90;;;1.07;88.43;103293.91;5027946;28;20403;-70
2023/01/24 01:56:37;;;;;;;25.03;21.43;;;2.20;97.80;;;1.05;88.21;103295.75;5027865;28;20517;-70
2023/01/24 01:59:12;;;;;;;23.95;20.88;;;2.10;97.80;;;1.01;87.95;103289.66;5027669;28;21076;-70
2023/01/24 02:01:42;;;;;;;25.65;22.00;;;2.10;97.70;;;1.03;88.06;103286.97;5028191;28;20407;-69
2023/01/24 02:04:17;;;;;;;23.95;21.10;;;2.10;97.80;;;1.03;88.35;103292.25;5028051;28;20411;-69
2023/01/24 02:06:55;;;;;;;24.60;21.48;;;2.10;97.70;;;1.06;88.67;103296.59;5027560;28;20413;-70
2023/01/24 02:09:29;;;;;;;23.65;21.15;;;2.10;97.70;;;1.04;88.42;103296.63;5027843;28;20391;-69
2023/01/24 02:12:04;;;;;;;25.00;21.58;;;2.10;97.70;;;1.05;88.76;103290.47;5027873;28;20399;-69
2023/01/24 02:17:22;;;;;;;23.30;19.60;;;2.20;97.80;;;1.07;87.47;103293.91;5027628;28;20422;-70
2023/01/24 02:20:21;;;;;;;22.02;19.63;;;2.10;97.50;;;1.10;88.20;103293.84;5027367;28;20418;-70
2023/01/24 02:23:07;;;;;;;22.10;19.17;;;2.10;97.50;;;1.10;87.88;103298.28;5027922;28;20411;-70
2023/01/24 02:25:44;;;;;;;21.08;18.33;;;2.20;97.40;;;1.08;87.35;103295.66;5027573;28;20414;-70
2023/01/24 02:28:13;;;;;;;21.38;17.98;;;2.20;97.30;;;1.10;88.07;103299.13;5027499;28;20759;-69
2023/01/24 02:30:41;;;;;;;19.92;17.83;;;2.20;97.50;;;1.11;87.51;103295.59;5027488;28;20911;-69
2023/01/24 02:33:13;;;;;;;19.30;17.20;;;2.20;97.30;;;1.10;87.39;103293.84;5031118;28;20486;-69
2023/01/24 02:35:41;;;;;;;18.52;16.52;;;2.20;97.10;;;1.11;87.21;103294.72;5030887;28;20497;-70
2023/01/24 02:38:20;;;;;;;18.45;16.45;;;2.20;97.00;;;1.12;86.95;103296.44;5030846;28;20423;-70
2023/01/24 02:40:53;;;;;;;19.70;17.45;;;2.20;97.00;;;1.13;87.33;103293.75;5030744;28;20398;-70
2023/01/24 02:43:29;;;;;;;18.73;16.80;;;2.20;97.00;;;1.11;87.37;103295.59;5031013;28;20403;-70
2023/01/24 02:45:57;;;;;;;17.80;16.00;;;2.20;97.40;;;1.11;86.29;103300.84;5030976;28;20406;-70
2023/01/24 02:48:27;;;;;;;18.05;16.15;;;2.20;96.60;;;1.11;86.32;103295.59;5030935;28;20442;-70
2023/01/24 02:53:40;;;;;;;17.98;16.08;;;2.20;96.50;;;1.10;86.23;103293.00;5031085;28;20411;-70
2023/01/24 02:58:57;;;;;;;16.60;14.82;;;2.20;96.60;;;1.12;86.86;103286.78;5030681;28;20389;-70
2023/01/24 03:01:25;;;;;;;18.40;16.48;;;2.20;96.70;;;1.11;86.47;103285.03;5030893;28;20414;-70
2023/01/24 03:03:56;;;;;;;17.90;16.00;;;2.20;96.50;;;1.11;86.54;103279.75;5030742;28;20430;-71
2023/01/24 03:06:25;;;;;;;17.63;15.63;;;2.20;96.60;;;1.14;86.68;103279.66;5030266;28;20411;-71
2023/01/24 03:08:53;;;;;;;16.53;14.53;;;2.20;96.80;;;1.13;86.24;103277.94;5030383;28;20775;-71
2023/01/24 03:11:21;;;;;;;16.27;14.57;;;2.20;96.70;;;1.16;86.86;103280.53;5029915;28;20402;-70
2023/01/24 03:36:01;;;;;;;12.52;11.23;;;2.20;95.80;;;1.09;84.99;103281.56;5029898;28;20879;-71
2023/01/24 03:41:15;;;;;;;13.80;12.30;;;2.20;95.70;;;1.13;85.60;103279.72;5030386;28;20411;-70
2023/01/24 03:43:44;;;;;;;14.13;12.00;;;2.20;95.90;;;1.11;84.63;103278.88;5029346;28;20418;-71
2023/01/24 03:46:12;;;;;;;14.35;12.90;;;2.20;95.80;;;1.11;85.16;103274.47;5030027;28;20884;-71
2023/01/24 03:48:41;;;;;;;13.20;11.90;;;2.20;95.90;;;1.09;84.28;103271.03;5029703;28;20939;-71
2023/01/24 03:53:56;;;;;;;13.00;11.70;;;2.10;95.70;;;1.08;84.45;103274.56;5029699;28;20568;-71
2023/01/24 03:56:25;;;;;;;12.23;10.88;;;2.20;95.40;;;1.09;84.54;103276.31;5029621;28;20407;-70
2023/01/24 03:58:54;;;;;;;11.70;10.60;;;2.20;95.40;;;1.11;85.08;103276.25;5029241;28;20450;-71
2023/01/24 04:01:22;;;;;;;11.93;10.73;;;2.20;95.60;;;1.09;84.41;103276.31;5029824;28;20453;-71
2023/01/24 04:03:51;;;;;;;12.88;11.45;;;2.10;95.30;;;1.11;85.01;103284.16;5029577;28;20407;-70
2023/01/24 04:06:19;;;;;;;13.07;11.77;;;2.10;95.50;;;1.10;84.15;103282.44;5029248;28;20989;-71
2023/01/24 04:08:49;;;;;;;12.65;11.35;;;2.20;95.40;;;1.12;84.88;103285.91;5029633;28;20403;-70
2023/01/24 04:11:17;;;;;;;12.20;11.00;;;2.20;95.50;;;1.09;84.49;103292.13;5029771;28;20403;-70
2023/01/24 04:13:45;;;;;;;12.18;10.98;;;2.20;95.30;;;1.08;84.40;103285.09;5029424;28;20410;-70
2023/01/24 04:16:14;;;;;;;12.32;11.13;;;2.10;95.20;;;1.08;84.75;103289.50;5029023;28;20407;-70
2023/01/24 04:18:44;;;;;;;12.82;11.52;;;2.10;95.30;;;1.08;84.78;103293.03;5028977;28;20450;-71
2023/01/24 04:21:14;;;;;;;12.67;11.40;;;2.10;95.60;;;1.08;84.60;103298.31;5029201;28;20407;-71
2023/01/24 04:23:42;;;;;;;12.70;11.40;;;2.10;95.50;;;1.08;84.79;103295.66;5028963;28;20407;-71
2023/01/24 04:26:10;;;;;;;13.02;11.63;;;2.10;95.40;;;1.08;85.11;103295.66;5028444;28;20403;-71
2023/01/24 04:28:38;;;;;;;13.23;11.93;;;2.10;95.50;;;1.08;84.26;103284.25;5028721;28;20414;-70
2023/01/24 04:31:06;;;;;;;13.57;12.17;;;2.20;95.50;;;1.10;85.05;103288.56;5028996;28;20410;-71
2023/01/24 04:33:35;;;;;;;12.95;11.65;;;2.20;95.50;;;1.10;84.77;103280.66;5028887;28;20411;-70
2023/01/24 04:36:03;;;;;;;13.00;11.70;;;2.20;95.50;;;1.09;83.75;103285.97;5028446;28;20749;-71
2023/01/24 04:38:33;;;;;;;12.98;11.68;;;2.20;95.20;;;1.09;83.71;103280.69;5028857;28;20479;-70
2023/01/24 04:41:02;;;;;;;12.88;11.57;;;2.20;95.00;;;1.07;83.53;103275.44;5029126;28;20457;-70
2023/01/24 04:43:30;;;;;;;13.07;11.70;;;2.10;95.10;;;1.08;84.36;103282.47;5028687;28;20418;-70
2023/01/24 04:45:59;;;;;;;13.48;12.07;;;2.20;95.30;;;1.06;83.91;103281.66;5028165;28;20822;-70
2023/01/24 04:48:27;;;;;;;13.52;12.13;;;2.10;95.20;;;1.06;84.98;103276.38;5028484;28;20402;-69
2023/01/24 04:51:00;;;;;;;14.80;13.07;;;2.10;95.40;;;1.06;84.38;103280.78;5028438;28;20410;-70
2023/01/24 04:53:33;;;;;;;15.52;13.93;;;2.20;95.50;;;1.06;84.62;103280.78;5028481;28;20489;-70
2023/01/24 04:56:02;;;;;;;16.88;13.30;;;2.10;95.60;;;1.09;85.62;103286.84;5027518;28;20407;-70
2023/01/24 04:58:30;;;;;;;13.40;11.98;;;2.20;95.80;;;1.12;85.42;103285.91;5044719;28;20432;-70
2023/01/24 05:00:59;;;;;;;13.25;11.90;;;2.20;95.70;;;1.10;85.13;103280.66;5048039;28;20787;-70
2023/01/24 05:03:28;;;;;;;13.75;12.23;;;2.20;95.60;;;1.09;84.74;103276.31;5048233;28;21112;-70
2023/01/24 05:05:57;;;;;;;12.83;11.60;;;2.10;95.50;;;1.10;85.09;103283.28;5047919;28;21058;-70
2023/01/24 05:08:26;;;;;;;13.07;11.65;;;2.20;95.60;;;1.09;84.72;103289.50;5048244;28;20480;-71
2023/01/24 05:10:55;;;;;;;13.10;11.77;;;2.20;95.30;;;1.08;84.44;103290.38;5048226;28;20408;-71
2023/01/24 05:13:23;;;;;;;12.60;11.33;;;2.20;95.50;;;1.08;84.37;103284.25;5048089;28;20958;-71
2023/01/24 05:15:52;;;;;;;12.27;10.98;;;2.20;95.30;;;1.08;84.98;103295.66;5047837;28;20408;-70
2023/01/24 05:18:20;;;;;;;12.38;11.18;;;2.20;95.40;;;1.06;84.21;103289.56;5046068;28;20483;-70
2023/01/24 05:20:49;;;;;;;12.20;11.00;;;2.10;95.10;;;1.06;84.40;103286.94;5027957;28;20906;-71
2023/01/24 05:23:17;;;;;;;12.15;10.95;;;2.10;95.10;;;1.06;84.20;103292.22;5027990;28;20433;-70
2023/01/24 05:25:45;;;;;;;12.15;10.85;;;2.10;95.20;;;1.06;84.86;103289.56;5028051;28;20441;-70
2023/01/24 05:28:14;;;;;;;12.18;10.98;;;2.20;95.30;;;1.04;83.71;103286.06;5028071;28;20407;-71
2023/01/24 05:30:42;;;;;;;11.95;10.75;;;2.10;95.20;;;1.05;84.15;103285.19;5027987;28;20403;-71
2023/01/24 05:33:10;;;;;;;12.47;11.20;;;2.10;95.10;;;1.03;84.28;103289.63;5028368;28;20914;-69
2023/01/24 05:35:40;;;;;;;11.75;10.55;;;2.10;95.10;;;1.00;83.63;103293.19;5027664;28;20403;-70
2023/01/24 05:38:08;;;;;;;11.27;10.10;;;2.10;95.00;;;1.00;83.63;103290.56;5027800;28;21106;-69
2023/01/24 05:40:37;;;;;;;10.70;9.63;;;2.10;94.80;;;1.00;82.92;103298.47;5027907;28;20422;-70
2023/01/24 05:43:07;;;;;;;11.73;10.50;;;2.10;94.80;;;1.02;84.31;103301.09;5027898;28;20768;-70
2023/01/24 05:45:36;;;;;;;11.45;10.10;;;2.10;94.90;;;1.01;83.33;103302.84;5027911;28;20406;-69
2023/01/24 05:48:04;;;;;;;11.77;9.95;;;2.10;94.70;;;1.03;82.96;103305.44;5027733;28;20398;-70
2023/01/24 05:50:32;;;;;;;10.27;9.27;;;2.10;94.70;;;1.04;83.15;103301.91;5027503;28;20411;-70
2023/01/24 05:53:02;;;;;;;11.20;10.10;;;2.10;94.60;;;1.05;83.08;103314.19;5028007;28;20407;-71
2023/01/24 05:55:31;;;;;;;11.32;10.23;;;2.10;94.60;;;1.03;83.86;103319.50;5027863;28;20433;-70
2023/01/24 05:58:00;;;;;;;11.68;10.48;;;2.10;94.80;;;1.02;83.23;103317.78;5027130;28;20411;-70
2023/01/24 06:00:28;;;;;;;11.30;10.20;;;2.10;94.70;;;1.03;83.85;103321.28;5027830;28;20767;-69
2023/01/24 06:03:03;;;;;;;11.75;10.55;;;2.10;94.80;;;1.02;83.54;103315.16;5027737;28;20922;-69
2023/01/24 06:05:31;;;;;;;11.75;10.65;;;2.10;94.90;;;1.04;83.76;103315.09;5027810;28;20495;-70
2023/01/24 06:07:59;;;;;;;11.13;10.03;;;2.10;95.00;;;1.04;83.50;103320.38;5031134;28;20433;-70
2023/01/24 06:10:27;;;;;;;11.55;10.45;;;2.10;94.80;;;1.04;84.06;103325.66;5031333;28;20421;-70
2023/01/24 06:12:55;;;;;;;11.77;10.57;;;2.10;94.90;;;1.04;83.79;103325.66;5031736;28;20410;-71
2023/01/24 06:15:23;;;;;;;12.48;10.18;;;2.10;94.90;;;1.02;83.83;103322.19;5031581;28;20411;-71
2023/01/24 06:17:51;;;;;;;11.38;10.27;;;2.10;94.80;;;1.01;84.11;103325.72;5031298;28;20446;-71
2023/01/24 06:20:21;;;;;;;11.27;10.10;;;2.10;94.80;;;1.02;83.92;103323.06;5031436;28;20419;-70
2023/01/24 06:22:54;;;;;;;11.05;9.93;;;2.10;94.90;;;1.02;82.90;103338.03;5031353;28;20413;-71
2023/01/24 06:25:26;;;;;;;11.38;10.20;;;2.10;94.60;;;1.02;83.80;103340.66;5031061;28;20831;-70
2023/01/24 06:27:54;;;;;;;10.55;9.45;;;2.10;94.80;;;1.00;83.49;103340.69;5031365;28;20407;-71
2023/01/24 06:30:23;;;;;;;10.30;9.30;;;2.10;94.60;;;1.00;82.90;103343.31;5031047;28;20415;-70
2023/01/24 06:33:16;;;;;;;8.67;7.87;;;2.10;94.60;;;1.01;82.41;103344.19;5031671;28;20409;-69
2023/01/24 06:36:08;;;;;;;9.13;8.23;;;2.10;94.30;;;0.95;82.14;103347.84;5030817;28;20815;-70
2023/01/24 06:38:37;;;;;;;8.98;8.07;;;2.00;94.10;;;0.95;82.37;103347.84;5031413;28;20427;-70
2023/01/24 06:41:16;;;;;;;8.90;8.02;;;2.10;94.20;;;0.96;82.81;103346.06;5031142;28;20460;-70
2023/01/24 06:43:45;;;;;;;9.23;8.32;;;2.10;94.30;;;0.96;82.51;103344.28;5031226;28;20410;-70
2023/01/24 06:46:14;;;;;;;9.25;8.35;;;2.00;94.20;;;0.95;82.51;103346.97;5030885;28;20524;-70
2023/01/24 06:48:44;;;;;;;10.13;9.13;;;2.00;94.20;;;0.95;82.92;103350.50;5031384;28;20402;-71
2023/01/24 06:51:14;;;;;;;10.55;9.48;;;2.00;94.30;;;0.94;83.29;103350.50;5031179;28;20749;-70
2023/01/24 06:53:43;;;;;;;10.10;9.10;;;2.00;94.40;;;0.93;82.95;103351.41;5031124;28;20399;-70
2023/01/24 06:56:11;;;;;;;9.57;8.68;;;2.00;94.40;;;0.94;83.66;103350.50;5030132;28;20413;-70
2023/01/24 06:58:42;;;;;;;8.83;8.00;;;2.00;94.50;;;0.92;81.97;103341.78;5030563;28;20942;-70
2023/01/24 07:01:10;;;;;;;7.80;7.00;;;2.00;94.10;;;0.90;81.47;103354.13;5030677;28;20407;-70
2023/01/24 07:03:38;;;;;;;7.85;7.15;;;2.00;93.80;;;0.89;82.21;103352.41;5030857;28;20407;-69
2023/01/24 07:06:06;;;;;;;8.20;7.40;;;2.00;93.80;;;0.90;82.61;103360.25;5030303;28;20795;-69
2023/01/24 07:08:36;;;;;;;7.70;6.90;;;2.00;94.10;;;0.92;82.86;103361.13;5030214;28;20410;-70
2023/01/24 07:11:04;;;;;;;7.90;7.18;;;2.00;94.10;;;0.88;82.06;103367.34;5030585;28;20490;-70
2023/01/24 07:13:32;;;;;;;7.22;6.53;;;2.00;93.80;;;0.88;81.11;103369.13;5030151;28;20461;-69
2023/01/24 07:16:02;;;;;;;8.60;7.70;;;1.90;93.60;;;0.91;82.62;103376.97;5029838;28;20414;-70
2023/01/24 07:18:31;;;;;;;8.50;7.70;;;2.00;94.00;;;0.87;82.05;103365.59;5029500;28;20434;-71
2023/01/24 07:21:00;;;;;;;8.52;7.72;;;2.00;93.80;;;0.87;82.11;103370.00;5029821;28;20438;-71
2023/01/24 07:23:31;;;;;;;8.23;7.53;;;1.90;94.10;;;0.91;82.48;103371.69;5030099;28;20838;-71
2023/01/24 07:26:03;;;;;;;8.13;7.32;;;2.00;94.20;;;0.91;82.62;103366.41;5029907;28;20414;-70
2023/01/24 07:28:31;;;;;;;7.83;7.13;;;2.00;94.10;;;0.90;81.74;103372.56;5029945;28;20416;-70
2023/01/24 07:30:59;;;;;;;7.97;7.28;;;2.00;93.90;;;0.85;82.48;103380.63;5030377;28;20402;-70
2023/01/24 07:33:27;;;;;;;8.02;7.25;;;1.90;93.80;;;0.87;82.35;103380.56;5030018;28;20417;-70
2023/01/24 07:35:55;;;;;;;7.68;6.97;;;2.00;94.30;;;0.88;82.37;103382.31;5029634;28;20410;-70
2023/01/24 07:38:23;;;;;;;8.30;7.50;;;2.00;94.20;;;0.88;82.62;103385.81;5030140;28;20404;-69
2023/01/24 07:40:51;;;;;;;8.20;7.40;;;2.00;94.10;;;0.85;82.63;103385.88;5029688;28;20430;-70
2023/01/24 07:43:21;;;;;;;8.65;7.85;;;2.00;93.90;;;0.86;83.02;103394.63;5029627;28;20922;-69
2023/01/24 07:45:49;;;;;;;8.13;7.43;;;1.90;94.20;;;0.85;82.29;103385.00;5029662;28;20414;-70
2023/01/24 07:48:20;;;;;;;8.40;7.60;;;2.00;94.20;;;0.88;82.97;103387.56;5029570;28;20418;-70
2023/01/24 07:50:48;;;;;;;8.60;7.82;;;2.00;94.40;;;0.87;82.96;103386.72;5029996;28;20476;-70
2023/01/24 07:53:16;;;;;;;8.27;7.47;;;1.90;94.40;;;0.87;83.46;103391.97;5029727;28;20887;-70
2023/01/24 07:55:44;;;;;;;8.37;7.60;;;1.90;94.30;;;0.87;82.87;103391.09;5029369;28;20807;-70
2023/01/24 07:58:30;;;;;;;7.63;6.93;;;1.90;94.40;;;0.84;82.23;103396.47;5029651;28;20767;-70
2023/01/24 08:00:59;;;;;;;7.97;7.18;;;1.90;93.70;;;0.81;81.75;103397.41;5029867;28;20423;-70
2023/01/24 08:03:27;;;;;;;8.40;7.60;;;1.90;94.30;;;0.80;82.69;103400.94;5029734;28;20399;-69
2023/01/24 08:05:55;;;;;;;8.30;7.50;;;1.90;94.00;;;0.80;83.11;103400.94;5029191;28;20426;-70
2023/01/24 08:08:24;;;;;;;7.70;7.00;;;1.90;94.10;;;0.84;83.12;103401.72;5029656;28;20822;-70
2023/01/24 08:10:52;;;;;;;8.93;8.13;;;1.90;94.20;;;0.82;82.60;103403.53;5029472;28;20407;-70
2023/01/24 08:13:21;;;;;;;8.27;7.47;;;1.90;94.20;;;0.78;82.44;103401.88;5029545;28;20411;-70
2023/01/24 08:15:51;;;;;;;8.75;7.85;;;1.90;94.10;;;0.76;82.06;103404.53;5029288;28;20453;-70
2023/01/24 08:18:20;;;;;;;8.60;7.70;;;1.80;93.90;;;0.78;83.17;103402.75;5028899;28;20411;-69
2023/01/24 08:20:49;;;;;;;8.38;7.60;;;1.80;94.20;;;0.77;82.25;103406.28;5029049;28;20911;-70
2023/01/24 08:23:17;;;;;;;7.85;7.15;;;1.80;94.10;;;0.78;82.46;103417.69;5028844;28;20434;-70
2023/01/24 08:25:45;;;;;;;8.82;7.65;;;1.80;94.20;;;0.80;81.99;103410.59;5029009;28;20498;-70
2023/01/24 08:28:13;;;;;;;8.27;7.47;;;1.90;94.10;;;0.79;82.34;103408.84;5029219;28;20419;-70
2023/01/24 08:30:42;;;;;;;8.75;7.95;;;1.80;94.20;;;0.76;82.57;103414.19;5028376;28;20399;-70
2023/01/24 08:33:17;;;;;;;8.75;7.95;;;1.80;93.90;;;0.78;82.73;103422.97;5029016;28;20403;-70
2023/01/24 08:35:46;;;;;;;8.23;7.53;;;1.90;94.30;;;0.79;82.53;103419.41;5028604;28;20410;-71
2023/01/24 08:38:15;;;;;;;8.60;7.80;;;1.90;94.20;;;0.77;81.91;103418.59;5028787;28;20934;-70
2023/01/24 08:40:44;;;;;;;7.95;7.25;;;1.90;94.40;;;0.80;82.71;103415.88;5028854;28;20433;-71
2023/01/24 08:43:18;;;;;;;8.43;7.72;;;1.90;94.20;;;0.79;82.90;103416.75;5028709;28;20403;-70
2023/01/24 08:45:46;;;;;;;8.55;7.75;;;1.90;94.10;;;0.82;82.33;103411.47;5028831;28;20418;-70
2023/01/24 08:48:16;;;;;;;7.80;7.10;;;1.90;94.20;;;0.79;82.69;103415.00;5028681;28;20411;-70
2023/01/24 08:50:44;;;;;;;8.10;7.30;;;1.90;94.20;;;0.80;83.17;103415.88;5028770;28;20407;-70
2023/01/24 08:53:12;;;;;;;7.80;7.10;;;1.90;94.20;;;0.78;82.72;103417.69;5028558;28;20478;-70
2023/01/24 08:55:40;;;;;;;8.98;8.18;;;1.90;94.00;;;0.77;82.59;103416.81;5028453;28;20411;-70
2023/01/24 08:58:09;;;;;;;8.68;7.80;;;1.90;94.00;;;0.77;82.85;103421.22;5028305;28;20446;-70
2023/01/24 09:00:37;;;;;;;8.73;7.93;;;1.80;94.10;;;0.80;83.22;103421.16;5028547;28;20433;-71
2023/01/24 09:03:05;;;;;;;9.27;8.48;;;1.90;94.20;;;0.78;82.74;103422.97;5028396;28;20860;-70
2023/01/24 09:05:36;;;;;;;9.65;8.75;;;1.80;94.20;;;0.80;83.47;103426.44;5027909;28;20414;-71
2023/01/24 09:08:05;;;;;;;9.85;8.95;;;1.90;94.30;;;0.78;82.67;103428.25;5027966;28;20403;-71
2023/01/24 09:10:33;;;;;;;9.65;8.75;;;1.80;94.30;;;0.77;82.17;103429.13;5027519;28;20402;-70
2023/01/24 09:13:02;;;;;;;8.45;7.65;;;1.80;94.20;;;0.79;82.76;103428.19;5027621;28;20407;-70
2023/01/24 09:15:31;;;;;;;8.82;8.02;;;1.90;94.20;;;0.80;81.90;103419.38;5028148;28;20411;-71
2023/01/24 09:18:01;;;;;;;8.95;8.13;;;1.90;94.20;;;0.80;82.12;103431.69;5028104;28;20699;-70
2023/01/24 09:20:29;;;;;;;8.40;7.68;;;1.90;94.00;;;0.80;82.38;103427.28;5028147;28;20427;-71
2023/01/24 09:22:59;;;;;;;9.65;8.35;;;1.90;94.00;;;0.83;82.53;103427.22;5028223;28;20403;-70
2023/01/24 09:25:30;;;;;;;8.25;7.53;;;1.90;94.20;;;0.85;82.53;103435.13;5018986;28;21042;-71
2023/01/24 09:27:58;;;;;;;7.82;7.13;;;1.90;94.00;;;0.84;81.65;103426.34;5026689;28;20417;-71
2023/01/24 09:30:27;;;;;;;8.77;7.95;;;1.90;93.80;;;0.83;81.54;103429.88;5028185;28;20863;-71
2023/01/24 09:32:56;;;;;;;9.20;8.30;;;1.90;93.70;;;0.80;82.06;103440.47;5028008;28;20884;-70
2023/01/24 09:35:24;;;;;;;9.10;8.20;;;1.90;93.80;;;0.79;82.29;103445.78;5027896;28;20411;-71
2023/01/24 09:37:53;;;;;;;9.10;8.30;;;1.90;93.90;;;0.83;83.06;103443.06;5027654;28;20440;-71
2023/01/24 09:40:27;;;;;;;8.60;7.82;;;1.90;94.20;;;0.84;82.08;103441.28;5028016;28;20895;-71
2023/01/24 09:43:09;;;;;;;8.07;7.28;;;2.00;94.10;;;0.81;82.54;103438.72;5031642;28;20418;-70
2023/01/24 09:45:50;;;;;;;8.63;7.82;;;1.90;93.80;;;0.82;81.92;103440.47;5031880;28;20919;-70
2023/01/24 09:48:21;;;;;;;8.27;7.47;;;1.90;94.00;;;0.84;81.91;103443.94;5031832;28;20493;-70
2023/01/24 09:50:57;;;;;;;7.40;6.80;;;1.90;93.70;;;0.82;81.74;103443.94;5032206;28;20406;-71
2023/01/24 09:53:38;;;;;;;8.00;7.30;;;1.90;93.70;;;0.82;81.22;103445.75;5032186;28;20403;-71
2023/01/24 09:56:13;;;;;;;8.27;7.50;;;1.90;93.40;;;0.81;81.27;103439.59;5031525;28;20499;-71
2023/01/24 09:58:44;;;;;;;8.88;8.00;;;1.90;93.40;;;0.86;82.37;103436.84;5031943;28;20494;-70
2023/01/24 10:01:15;;;;;;;7.97;7.20;;;1.90;93.80;;;0.85;81.47;103440.41;5031699;28;20574;-71
2023/01/24 10:03:44;;;;;;;8.80;8.00;;;1.90;93.70;;;0.88;81.34;103437.69;5031634;28;20415;-71
2023/01/24 10:06:17;;;;;;;8.38;7.68;;;2.00;93.40;;;0.86;81.48;103435.06;5031257;28;20918;-71
2023/01/24 10:08:57;;;;;;;8.75;7.95;;;2.00;93.40;;;0.89;80.91;103444.72;5031352;28;21022;-71
2023/01/24 10:11:40;;;;;;;7.70;7.03;;;2.00;93.40;;;0.89;81.04;103436.81;5031510;28;20413;-71
2023/01/24 10:14:36;;;;;;;8.40;7.25;;;2.00;93.20;;;0.88;80.63;103430.66;5031470;28;20415;-70
2023/01/24 10:17:36;;;;;;;8.20;7.40;;;2.00;93.10;;;0.88;80.86;103427.13;5031162;28;20409;-71
2023/01/24 10:20:46;;;;;;;9.27;8.38;;;2.00;93.00;;;0.92;81.95;103420.91;5030510;28;20425;-70
2023/01/24 10:23:19;;;;;;;8.98;8.07;;;2.00;93.30;;;0.92;81.82;103427.06;5003197;28;20434;-70
2023/01/24 10:25:56;;;;;;;8.27;7.50;;;2.00;93.40;;;0.92;80.79;103418.25;5025193;28;20406;-70
2023/01/24 10:28:33;;;;;;;9.32;8.40;;;2.00;93.10;;;0.93;81.62;103412.94;5029966;28;20418;-69
2023/01/24 10:31:09;;;;;;;9.15;8.35;;;2.00;93.40;;;1.00;82.01;103418.94;5030965;28;20403;-70
2023/01/24 10:33:47;;;;;;;9.52;8.63;;;2.00;93.50;;;1.03;81.74;103418.88;5031210;28;20403;-63
2023/01/24 10:36:29;;;;;;;9.15;8.25;;;2.10;93.30;;;1.05;81.14;103417.09;5030349;28;20755;-73
2023/01/24 10:38:58;;;;;;;9.35;8.35;;;2.10;93.10;;;1.09;81.30;103420.53;5031022;28;20413;-73
2023/01/24 10:41:30;;;;;;;9.45;8.45;;;2.10;93.10;;;1.08;81.14;103417.00;5030973;28;20431;-73
2023/01/24 10:44:09;;;;;;;8.55;7.75;;;2.20;92.90;;;1.09;80.78;103405.56;5030618;28;20411;-73
2023/01/24 10:47:01;;;;;;;9.00;8.10;;;2.20;93.20;;;1.03;80.04;103409.19;5030786;28;20767;-73
2023/01/24 10:49:35;;;;;;;8.35;7.55;;;2.10;92.50;;;1.08;80.93;103408.22;5031097;28;20399;-73
2023/01/24 10:52:14;;;;;;;10.43;9.13;;;2.20;92.90;;;1.14;80.92;103410.72;5030544;28;20410;-62
2023/01/24 10:54:51;;;;;;;9.00;8.05;;;2.20;93.00;;;1.11;79.62;103408.16;5030957;28;20405;-70
2023/01/24 10:57:40;;;;;;;9.02;8.07;;;2.20;92.50;;;1.15;80.73;103401.91;5030767;28;20407;-71
2023/01/24 11:00:30;;;;;;;8.97;8.07;;;2.20;92.80;;;1.21;81.10;103397.34;5030605;28;20406;-71
2023/01/24 11:03:01;;;;;;;8.55;7.75;;;2.30;93.20;;;1.21;80.53;103401.75;5030858;28;20431;-71
2023/01/24 11:05:45;;;;;;;8.33;7.53;;;2.30;92.90;;;1.21;80.13;103393.84;5030977;28;20410;-71
2023/01/24 11:08:21;;;;;;;8.27;7.32;;;2.30;92.80;;;1.22;80.40;103396.47;5031029;28;20399;-70
2023/01/24 11:10:54;;;;;;;8.38;7.57;;;2.30;92.70;;;1.23;81.45;103390.28;5030525;28;20414;-71